createdAt,value
2017-12-05T00:00:53.724Z,44.37
2017-12-05T00:02:56.434Z,45.97
2017-12-05T00:04:59.111Z,44.00
2017-12-05T00:07:01.779Z,41.30
2017-12-05T00:09:04.484Z,42.13
2017-12-05T00:11:07.925Z,40.50
2017-12-05T00:13:10.592Z,45.13
2017-12-05T00:15:13.292Z,40.13
2017-12-05T00:17:15.970Z,48.83
2017-12-05T00:19:18.680Z,39.00
2017-12-05T00:21:22.127Z,41.30
2017-12-05T00:23:24.821Z,39.40
2017-12-05T00:25:27.516Z,41.37
2017-12-05T00:27:30.174Z,41.40
2017-12-05T00:29:32.830Z,40.60
2017-12-05T00:31:35.511Z,42.40
2017-12-05T00:33:38.160Z,40.00
2017-12-05T00:35:40.842Z,38.27
2017-12-05T00:37:43.620Z,38.83
2017-12-05T00:39:46.311Z,37.43
2017-12-05T00:41:49.021Z,38.40
2017-12-05T00:43:51.755Z,38.80
2017-12-05T00:45:54.451Z,38.07
2017-12-05T00:47:57.158Z,35.27
2017-12-05T00:49:59.832Z,39.30
2017-12-05T00:52:02.545Z,37.63
2017-12-05T00:54:05.216Z,37.40
2017-12-05T00:56:07.916Z,35.80
2017-12-05T00:58:10.569Z,35.93
2017-12-05T01:00:13.266Z,36.60
2017-12-05T01:02:15.949Z,35.10
2017-12-05T01:04:18.613Z,35.80
2017-12-05T01:06:21.284Z,36.00
2017-12-05T01:08:23.940Z,34.63
2017-12-05T01:10:27.370Z,35.30
2017-12-05T01:12:30.132Z,34.33
2017-12-05T01:14:32.911Z,35.40
2017-12-05T01:16:35.566Z,36.63
2017-12-05T01:18:39.019Z,37.00
2017-12-05T01:20:41.745Z,35.87
2017-12-05T01:22:44.415Z,33.17
2017-12-05T01:24:47.874Z,37.33
2017-12-05T01:26:50.546Z,33.50
2017-12-05T01:28:53.234Z,36.67
2017-12-05T01:30:55.877Z,35.23
2017-12-05T01:32:58.520Z,33.90
2017-12-05T01:35:01.188Z,33.63
2017-12-05T01:37:04.633Z,33.00
2017-12-05T01:39:07.277Z,31.43
2017-12-05T01:41:09.995Z,33.73
2017-12-05T01:43:12.661Z,30.37
2017-12-05T01:45:15.330Z,31.80
2017-12-05T01:47:18.026Z,32.37
2017-12-05T01:49:20.700Z,30.37
2017-12-05T01:51:23.373Z,33.13
2017-12-05T01:53:26.072Z,31.47
2017-12-05T01:55:28.715Z,31.53
2017-12-05T01:57:31.371Z,32.67
2017-12-05T01:59:34.154Z,32.10
2017-12-05T02:01:36.864Z,30.77
2017-12-05T02:03:39.534Z,31.33
2017-12-05T02:05:42.249Z,31.30
2017-12-05T02:07:45.690Z,32.30
2017-12-05T02:09:48.354Z,29.87
2017-12-05T02:11:51.077Z,29.17
2017-12-05T02:13:53.780Z,30.00
2017-12-05T02:15:56.476Z,29.67
2017-12-05T02:17:59.179Z,30.33
2017-12-05T02:20:01.869Z,30.20
2017-12-05T02:22:04.636Z,29.27
2017-12-05T02:24:08.078Z,32.13
2017-12-05T02:26:10.747Z,29.77
2017-12-05T02:28:14.267Z,28.70
2017-12-05T02:30:16.956Z,29.60
2017-12-05T02:32:19.623Z,29.90
2017-12-05T02:34:22.269Z,29.00
2017-12-05T02:36:25.767Z,27.30
2017-12-05T02:38:28.381Z,27.40
2017-12-05T02:40:43.009Z,29.40
2017-12-05T02:42:45.698Z,26.90
2017-12-05T02:44:48.384Z,27.83
2017-12-05T02:46:51.068Z,26.70
2017-12-05T02:48:53.814Z,25.97
2017-12-05T02:50:56.493Z,24.77
2017-12-05T02:52:59.196Z,25.63
2017-12-05T02:55:01.934Z,24.73
2017-12-05T02:57:05.390Z,25.97
2017-12-05T02:59:08.110Z,25.47
2017-12-05T03:01:10.842Z,23.87
2017-12-05T03:03:13.560Z,23.03
2017-12-05T03:05:17.038Z,25.50
2017-12-05T03:07:19.756Z,24.27
2017-12-05T03:09:22.534Z,21.83
2017-12-05T03:11:25.206Z,23.10
2017-12-05T03:13:27.905Z,22.30
2017-12-05T03:15:30.622Z,24.60
2017-12-05T03:17:33.334Z,23.77
2017-12-05T03:19:36.043Z,22.40
2017-12-05T03:21:38.705Z,20.47
2017-12-05T03:23:41.615Z,22.57
2017-12-05T03:25:45.279Z,21.53
2017-12-05T03:27:47.937Z,19.27
2017-12-05T03:29:50.640Z,19.57
2017-12-05T03:31:53.332Z,20.40
2017-12-05T03:33:55.986Z,21.50
2017-12-05T03:35:58.635Z,20.23
2017-12-05T03:38:02.084Z,19.77
2017-12-05T03:40:04.739Z,20.37
2017-12-05T03:42:07.376Z,21.30
2017-12-05T03:44:10.843Z,20.23
2017-12-05T03:46:13.496Z,20.23
2017-12-05T03:48:16.250Z,23.10
2017-12-05T03:50:18.911Z,20.73
2017-12-05T03:52:21.581Z,21.80
2017-12-05T03:54:24.279Z,21.03
2017-12-05T03:56:26.929Z,21.80
2017-12-05T03:58:30.333Z,22.30
2017-12-05T04:00:33.124Z,22.17
2017-12-05T04:02:35.763Z,20.43
2017-12-05T04:04:39.243Z,22.70
2017-12-05T04:06:41.984Z,21.20
2017-12-05T04:08:44.635Z,22.67
2017-12-05T04:10:47.281Z,22.73
2017-12-05T04:12:49.952Z,21.60
2017-12-05T04:14:52.589Z,22.13
2017-12-05T04:16:55.236Z,21.63
2017-12-05T04:18:57.904Z,22.80
2017-12-05T04:21:01.335Z,21.13
2017-12-05T04:23:04.002Z,22.43
2017-12-05T04:25:06.816Z,21.27
2017-12-05T04:27:09.566Z,21.83
2017-12-05T04:29:12.221Z,22.93
2017-12-05T04:31:14.909Z,22.83
2017-12-05T04:33:17.592Z,22.90
2017-12-05T04:35:20.290Z,21.57
2017-12-05T04:37:22.994Z,22.30
2017-12-05T04:39:25.709Z,22.97
2017-12-05T04:41:28.433Z,23.30
2017-12-05T04:43:31.096Z,23.23
2017-12-05T04:45:34.339Z,23.27
2017-12-05T04:47:37.021Z,26.40
2017-12-05T04:49:39.749Z,23.90
2017-12-05T04:51:42.434Z,26.30
2017-12-05T04:53:45.105Z,25.70
2017-12-05T04:55:47.812Z,27.53
2017-12-05T04:57:51.237Z,26.10
2017-12-05T04:59:53.984Z,26.57
2017-12-05T05:01:57.569Z,26.70
2017-12-05T05:04:00.243Z,26.23
2017-12-05T05:06:02.900Z,29.90
2017-12-05T05:08:06.483Z,26.80
2017-12-05T05:10:09.134Z,29.17
2017-12-05T05:12:11.803Z,28.07
2017-12-05T05:14:14.498Z,29.77
2017-12-05T05:16:17.155Z,29.07
2017-12-05T05:18:19.797Z,30.60
2017-12-05T05:20:22.492Z,30.63
2017-12-05T05:22:25.916Z,30.10
2017-12-05T05:24:28.572Z,30.50
2017-12-05T05:26:31.265Z,31.07
2017-12-05T05:28:33.912Z,31.40
2017-12-05T05:30:37.354Z,31.50
2017-12-05T05:32:40.241Z,32.50
2017-12-05T05:34:42.881Z,33.83
2017-12-05T05:36:45.542Z,32.57
2017-12-05T05:38:48.978Z,33.37
2017-12-05T05:40:51.733Z,32.40
2017-12-05T05:42:54.399Z,36.17
2017-12-05T05:44:57.061Z,36.07
2017-12-05T05:47:00.484Z,35.47
2017-12-05T05:49:03.160Z,34.43
2017-12-05T05:51:05.836Z,34.20
2017-12-05T05:53:08.609Z,33.20
2017-12-05T05:55:11.295Z,36.37
2017-12-05T05:57:13.997Z,36.87
2017-12-05T05:59:16.635Z,36.17
2017-12-05T06:01:19.300Z,37.70
2017-12-05T06:03:21.959Z,38.20
2017-12-05T06:05:25.414Z,35.53
2017-12-05T06:07:28.161Z,35.73
2017-12-05T06:09:30.939Z,38.17
2017-12-05T06:11:33.716Z,35.97
2017-12-05T06:13:36.495Z,35.27
2017-12-05T06:15:39.411Z,36.43
2017-12-05T06:17:42.103Z,36.87
2017-12-05T06:19:44.768Z,37.00
2017-12-05T06:21:47.434Z,37.50
2017-12-05T06:23:50.077Z,34.53
2017-12-05T06:25:52.944Z,36.23
2017-12-05T06:27:55.729Z,35.90
2017-12-05T06:29:58.391Z,35.67
2017-12-05T06:32:01.843Z,36.90
2017-12-05T06:34:04.581Z,34.73
2017-12-05T06:36:07.243Z,35.10
2017-12-05T06:38:10.693Z,35.63
2017-12-05T06:40:13.355Z,35.87
2017-12-05T06:42:16.227Z,35.73
2017-12-05T06:44:20.001Z,35.07
2017-12-05T06:46:22.806Z,35.90
2017-12-05T06:48:25.492Z,33.53
2017-12-05T06:50:28.231Z,36.33
2017-12-05T06:52:30.974Z,35.23
2017-12-05T06:54:33.670Z,33.17
2017-12-05T06:56:37.131Z,33.30
2017-12-05T06:58:39.864Z,36.50
2017-12-05T07:00:42.578Z,35.83
2017-12-05T07:02:45.289Z,34.27
2017-12-05T07:04:48.755Z,34.57
2017-12-05T07:06:51.443Z,35.13
2017-12-05T07:08:54.153Z,35.07
2017-12-05T07:10:57.608Z,34.07
2017-12-05T07:13:00.294Z,33.13
2017-12-05T07:15:03.011Z,34.03
2017-12-05T07:17:05.705Z,35.17
2017-12-05T07:19:08.398Z,33.33
2017-12-05T07:21:11.160Z,34.77
2017-12-05T07:23:13.855Z,34.90
2017-12-05T07:25:16.547Z,33.47
2017-12-05T07:27:19.372Z,33.77
2017-12-05T07:29:22.145Z,34.00
2017-12-05T07:31:25.616Z,34.30
2017-12-05T07:33:28.326Z,34.10
2017-12-05T07:35:31.062Z,32.87
2017-12-05T07:37:33.748Z,34.07
2017-12-05T07:39:36.523Z,35.97
2017-12-05T07:41:39.222Z,35.63
2017-12-05T07:43:42.795Z,35.50
2017-12-05T07:45:45.509Z,34.70
2017-12-05T07:47:48.302Z,35.37
2017-12-05T07:49:51.079Z,36.63
2017-12-05T07:51:53.797Z,34.97
2017-12-05T07:53:56.503Z,34.17
2017-12-05T07:55:59.938Z,35.97
2017-12-05T07:58:02.665Z,34.70
2017-12-05T08:00:05.489Z,34.67
2017-12-05T08:02:08.204Z,35.70
2017-12-05T08:04:10.907Z,33.20
2017-12-05T08:06:14.374Z,35.00
2017-12-05T08:08:17.044Z,35.87
2017-12-05T08:10:19.750Z,37.60
2017-12-05T08:12:23.233Z,35.07
2017-12-05T08:14:26.805Z,34.50
2017-12-05T08:16:29.899Z,34.23
2017-12-05T08:18:32.782Z,33.80
2017-12-05T08:20:35.452Z,33.30
2017-12-05T08:22:38.302Z,33.97
2017-12-05T08:24:40.989Z,36.20
2017-12-05T08:26:43.749Z,35.20
2017-12-05T08:28:46.509Z,33.60
2017-12-05T08:30:49.957Z,36.97
2017-12-05T08:32:52.871Z,32.60
2017-12-05T08:34:56.406Z,35.70
2017-12-05T08:36:59.096Z,33.90
2017-12-05T08:39:01.816Z,34.47
2017-12-05T08:41:04.545Z,33.00
2017-12-05T08:43:07.240Z,34.63
2017-12-05T08:45:10.300Z,31.63
2017-12-05T08:47:13.027Z,31.47
2017-12-05T08:49:15.759Z,31.23
2017-12-05T08:51:18.460Z,32.97
2017-12-05T08:53:21.173Z,32.27
2017-12-05T08:55:24.613Z,30.60
2017-12-05T08:57:27.300Z,33.47
2017-12-05T08:59:30.097Z,30.57
2017-12-05T09:01:32.818Z,30.37
2017-12-05T09:03:35.484Z,30.93
2017-12-05T09:05:38.976Z,33.77
2017-12-05T09:07:42.427Z,32.50
2017-12-05T09:09:45.189Z,32.27
2017-12-05T09:11:47.917Z,33.10
2017-12-05T09:13:51.405Z,29.60
2017-12-05T09:15:54.137Z,33.30
2017-12-05T09:17:56.824Z,31.70
2017-12-05T09:19:59.516Z,32.67
2017-12-05T09:22:02.262Z,31.97
2017-12-05T09:24:04.940Z,32.33
2017-12-05T09:26:07.639Z,30.97
2017-12-05T09:28:10.368Z,31.33
2017-12-05T09:30:13.844Z,32.87
2017-12-05T09:32:17.315Z,31.83
2017-12-05T09:34:20.042Z,33.60
2017-12-05T09:36:22.747Z,31.27
2017-12-05T09:38:25.457Z,36.30
2017-12-05T09:40:28.187Z,31.20
2017-12-05T09:42:30.886Z,32.60
2017-12-05T09:44:33.584Z,31.00
2017-12-05T09:46:36.327Z,31.67
2017-12-05T09:48:39.081Z,33.63
2017-12-05T09:50:41.827Z,28.83
2017-12-05T09:52:44.537Z,30.60
2017-12-05T09:54:47.244Z,29.70
2017-12-05T09:56:49.914Z,29.87
2017-12-05T09:58:52.614Z,29.50
2017-12-05T10:00:55.295Z,31.07
2017-12-05T10:02:58.024Z,27.80
2017-12-05T10:05:00.761Z,31.70
2017-12-05T10:07:03.458Z,27.93
2017-12-05T10:09:06.936Z,29.50
2017-12-05T10:11:09.649Z,28.67
2017-12-05T10:13:12.380Z,30.10
2017-12-05T10:15:15.082Z,27.33
2017-12-05T10:17:17.861Z,28.40
2017-12-05T10:19:21.354Z,27.63
2017-12-05T10:21:24.812Z,28.30
2017-12-05T10:23:27.715Z,26.50
2017-12-05T10:25:30.515Z,28.03
2017-12-05T10:27:33.992Z,26.80
2017-12-05T10:29:36.749Z,27.50
2017-12-05T10:31:39.591Z,27.83
2017-12-05T10:33:42.278Z,27.47
2017-12-05T10:35:44.963Z,25.83
2017-12-05T10:37:47.672Z,25.60
2017-12-05T10:39:50.388Z,27.70
2017-12-05T10:41:53.098Z,25.70
2017-12-05T10:43:56.223Z,24.83
2017-12-05T10:45:59.135Z,25.73
2017-12-05T10:48:01.891Z,27.50
2017-12-05T10:50:05.360Z,25.90
2017-12-05T10:52:08.227Z,25.97
2017-12-05T10:54:11.030Z,26.23
2017-12-05T10:56:13.726Z,24.60
2017-12-05T10:58:17.214Z,27.40
2017-12-05T11:00:20.726Z,24.87
2017-12-05T11:02:23.437Z,24.63
2017-12-05T11:04:26.134Z,25.40
2017-12-05T11:06:28.835Z,25.13
2017-12-05T11:08:32.303Z,27.23
2017-12-05T11:10:34.957Z,24.90
2017-12-05T11:12:37.777Z,24.83
2017-12-05T11:14:41.230Z,24.73
2017-12-05T11:16:43.999Z,25.13
2017-12-05T11:18:46.710Z,24.97
2017-12-05T11:20:49.443Z,25.93
2017-12-05T11:22:52.148Z,24.03
2017-12-05T11:24:54.834Z,25.40
2017-12-05T11:26:57.518Z,24.20
2017-12-05T11:29:00.194Z,24.67
2017-12-05T11:31:02.881Z,24.33
2017-12-05T11:33:05.597Z,24.97
2017-12-05T11:35:08.249Z,26.10
2017-12-05T11:37:11.705Z,25.20
2017-12-05T11:39:14.387Z,24.37
2017-12-05T11:41:17.059Z,23.10
2017-12-05T11:43:19.759Z,24.70
2017-12-05T11:45:22.450Z,24.00
2017-12-05T11:47:25.913Z,24.87
2017-12-05T11:49:28.628Z,23.53
2017-12-05T11:51:32.102Z,26.80
2017-12-05T11:53:34.855Z,26.50
2017-12-05T11:55:37.574Z,25.23
2017-12-05T11:57:41.010Z,24.40
2017-12-05T11:59:43.732Z,25.60
2017-12-05T12:01:46.408Z,23.70
2017-12-05T12:03:49.096Z,24.80
2017-12-05T12:05:52.633Z,22.97
2017-12-05T12:07:55.362Z,23.37
2017-12-05T12:09:58.188Z,25.83
2017-12-05T12:12:00.829Z,24.70
2017-12-05T12:14:04.361Z,24.00
2017-12-05T12:16:07.027Z,23.70
2017-12-05T12:18:09.721Z,23.70
2017-12-05T12:20:12.380Z,24.87
2017-12-05T12:22:15.034Z,24.23
2017-12-05T12:24:18.515Z,23.77
2017-12-05T12:26:21.208Z,23.77
2017-12-05T12:28:24.702Z,23.90
2017-12-05T12:30:28.203Z,22.70
2017-12-05T12:32:31.622Z,24.47
2017-12-05T12:34:34.284Z,23.27
2017-12-05T12:36:36.958Z,24.60
2017-12-05T12:38:39.636Z,24.70
2017-12-05T12:40:42.296Z,22.23
2017-12-05T12:42:45.751Z,25.20
2017-12-05T12:44:48.603Z,24.40
2017-12-05T12:46:51.248Z,25.33
2017-12-05T12:48:54.684Z,24.20
2017-12-05T12:50:57.351Z,21.97
2017-12-05T12:53:00.015Z,23.77
2017-12-05T12:55:02.703Z,23.20
2017-12-05T12:57:05.352Z,28.67
2017-12-05T12:59:08.020Z,25.87
2017-12-05T13:01:11.468Z,24.80
2017-12-05T13:03:14.120Z,26.97
2017-12-05T13:05:16.771Z,25.33
2017-12-05T13:07:19.519Z,24.77
2017-12-05T13:09:22.367Z,25.30
2017-12-05T13:11:25.344Z,24.27
2017-12-05T13:13:28.031Z,22.93
2017-12-05T13:15:30.690Z,25.90
2017-12-05T13:17:33.338Z,23.20
2017-12-05T13:19:36.009Z,24.37
2017-12-05T13:21:39.955Z,24.00
2017-12-05T13:23:42.614Z,22.57
2017-12-05T13:25:45.296Z,22.60
2017-12-05T13:27:47.975Z,23.93
2017-12-05T13:29:50.695Z,20.87
2017-12-05T13:31:53.388Z,22.60
2017-12-05T13:33:57.089Z,22.50
2017-12-05T13:36:00.504Z,22.20
2017-12-05T13:38:05.171Z,21.10
2017-12-05T13:40:08.031Z,21.03
2017-12-05T13:42:10.691Z,22.87
2017-12-05T13:44:13.574Z,23.30
2017-12-05T13:46:16.358Z,24.50
2017-12-05T13:48:19.017Z,22.40
2017-12-05T13:50:21.970Z,21.30
2017-12-05T13:52:24.624Z,21.77
2017-12-05T13:54:27.269Z,22.07
2017-12-05T13:56:30.039Z,22.00
2017-12-05T13:58:32.691Z,20.83
2017-12-05T14:00:36.147Z,23.00
2017-12-05T14:02:38.880Z,21.70
2017-12-05T14:04:41.561Z,19.70
2017-12-05T14:06:44.235Z,21.60
2017-12-05T14:08:46.929Z,22.50
2017-12-05T14:10:49.623Z,21.80
2017-12-05T14:12:52.322Z,21.40
2017-12-05T14:14:54.986Z,20.00
2017-12-05T14:16:57.662Z,22.13
2017-12-05T14:19:00.362Z,20.57
2017-12-05T14:21:03.832Z,20.17
2017-12-05T14:23:06.509Z,20.10
2017-12-05T14:25:09.217Z,19.40
2017-12-05T14:27:12.672Z,20.60
2017-12-05T14:29:15.383Z,20.07
2017-12-05T14:31:18.811Z,19.53
2017-12-05T14:33:21.512Z,19.17
2017-12-05T14:35:24.986Z,21.60
2017-12-05T14:37:27.667Z,21.20
2017-12-05T14:39:30.336Z,19.20
2017-12-05T14:41:33.037Z,20.40
2017-12-05T14:43:35.710Z,21.97
2017-12-05T14:45:38.391Z,19.60
2017-12-05T14:47:41.076Z,23.83
2017-12-05T14:49:43.726Z,18.57
2017-12-05T14:51:46.389Z,18.60
2017-12-05T14:53:49.107Z,20.00
2017-12-05T14:55:51.784Z,19.97
2017-12-05T14:57:54.485Z,47.23
2017-12-05T14:59:57.962Z,30.63
2017-12-05T15:02:00.635Z,22.00
2017-12-05T15:04:04.105Z,24.03
2017-12-05T15:06:06.754Z,33.63
2017-12-05T15:08:09.410Z,22.60
2017-12-05T15:10:12.073Z,19.23
2017-12-05T15:12:14.726Z,32.17
2017-12-05T15:14:17.410Z,23.00
2017-12-05T15:16:20.864Z,25.90
2017-12-05T15:18:23.558Z,21.77
2017-12-05T15:20:26.261Z,22.03
2017-12-05T15:22:29.725Z,20.90
2017-12-05T15:24:32.391Z,24.37
2017-12-05T15:26:35.072Z,22.67
2017-12-05T15:28:37.747Z,19.93
2017-12-05T15:30:40.431Z,21.00
2017-12-05T15:32:43.079Z,20.00
2017-12-05T15:34:45.793Z,21.13
2017-12-05T15:36:48.464Z,19.87
2017-12-05T15:38:51.141Z,21.17
2017-12-05T15:40:53.870Z,22.60
2017-12-05T15:42:56.527Z,21.50
2017-12-05T15:44:59.193Z,22.30
2017-12-05T15:47:01.885Z,19.97
2017-12-05T15:49:04.533Z,20.27
2017-12-05T15:51:07.979Z,20.87
2017-12-05T15:53:10.677Z,20.37
2017-12-05T15:55:13.354Z,61.10
2017-12-05T15:57:16.021Z,25.07
2017-12-05T15:59:18.705Z,25.20
2017-12-05T16:01:21.397Z,16.87
2017-12-05T16:03:24.861Z,20.00
2017-12-05T16:05:27.578Z,17.70
2017-12-05T16:07:31.012Z,18.23
2017-12-05T16:09:33.713Z,18.33
2017-12-05T16:11:36.417Z,16.50
2017-12-05T16:13:39.894Z,17.37
2017-12-05T16:15:42.586Z,16.80
2017-12-05T16:17:46.101Z,16.37
2017-12-05T16:19:48.791Z,16.20
2017-12-05T16:21:51.471Z,14.80
2017-12-05T16:23:54.168Z,18.23
2017-12-05T16:25:56.823Z,25.27
2017-12-05T16:27:59.551Z,20.97
2017-12-05T16:30:02.994Z,25.20
2017-12-05T16:32:05.642Z,17.23
2017-12-05T16:34:08.350Z,17.87
2017-12-05T16:36:11.014Z,14.83
2017-12-05T16:38:13.694Z,15.83
2017-12-05T16:40:16.420Z,17.07
2017-12-05T16:42:19.897Z,17.00
2017-12-05T16:44:22.567Z,17.63
2017-12-05T16:46:25.302Z,15.60
2017-12-05T16:48:27.960Z,15.00
2017-12-05T16:50:30.816Z,15.80
2017-12-05T16:52:34.282Z,15.90
2017-12-05T16:54:36.973Z,14.33
2017-12-05T16:56:39.636Z,15.07
2017-12-05T16:58:42.315Z,15.00
2017-12-05T17:00:45.022Z,18.80
2017-12-05T17:02:48.474Z,15.93
2017-12-05T17:04:51.149Z,15.73
2017-12-05T17:06:53.817Z,16.43
2017-12-05T17:08:56.477Z,15.77
2017-12-05T17:10:59.163Z,17.93
2017-12-05T17:13:01.841Z,18.53
2017-12-05T17:15:04.541Z,17.00
2017-12-05T17:17:07.253Z,17.77
2017-12-05T17:19:09.911Z,17.93
2017-12-05T17:21:13.384Z,18.60
2017-12-05T17:23:16.079Z,22.50
2017-12-05T17:25:19.514Z,27.07
2017-12-05T17:27:22.173Z,27.67
2017-12-05T17:29:24.861Z,27.00
2017-12-05T17:31:27.589Z,20.47
2017-12-05T17:33:31.068Z,23.13
2017-12-05T17:35:33.773Z,18.50
2017-12-05T17:37:37.296Z,18.33
2017-12-05T17:39:40.032Z,16.87
2017-12-05T17:41:42.704Z,18.27
2017-12-05T17:43:45.507Z,16.97
2017-12-05T17:45:48.275Z,17.90
2017-12-05T17:47:51.704Z,17.00
2017-12-05T17:49:54.351Z,18.40
2017-12-05T17:51:57.812Z,17.40
2017-12-05T17:54:00.502Z,17.47
2017-12-05T17:56:03.178Z,18.63
2017-12-05T17:58:06.644Z,15.53
2017-12-05T18:00:09.329Z,16.20
2017-12-05T18:02:11.988Z,15.17
2017-12-05T18:04:14.710Z,16.17
2017-12-05T18:06:18.205Z,17.80
2017-12-05T18:08:20.927Z,17.93
2017-12-05T18:10:23.717Z,16.20
2017-12-05T18:12:26.411Z,15.80
2017-12-05T18:14:29.119Z,15.23
2017-12-05T18:16:31.892Z,14.33
2017-12-05T18:18:35.332Z,15.23
2017-12-05T18:20:38.007Z,16.73
2017-12-05T18:22:40.740Z,15.30
2017-12-05T18:24:43.454Z,15.70
2017-12-05T18:26:46.195Z,15.83
2017-12-05T18:28:48.917Z,15.43
2017-12-05T18:30:56.401Z,15.70
2017-12-05T18:32:59.232Z,15.83
2017-12-05T18:35:01.967Z,15.27
2017-12-05T18:37:04.662Z,15.93
2017-12-05T18:39:07.367Z,16.33
2017-12-05T18:41:10.035Z,16.77
2017-12-05T18:43:13.484Z,16.20
2017-12-05T18:45:16.334Z,15.80
2017-12-05T18:47:19.020Z,15.50
2017-12-05T18:49:21.709Z,15.00
2017-12-05T18:51:24.428Z,15.63
2017-12-05T18:53:27.891Z,15.17
2017-12-05T18:55:30.581Z,15.07
2017-12-05T18:57:33.289Z,14.17
2017-12-05T18:59:37.026Z,16.20
2017-12-05T19:01:40.728Z,26.63
2017-12-05T19:03:43.622Z,33.03
2017-12-05T19:05:46.303Z,26.57
2017-12-05T19:07:49.051Z,21.20
2017-12-05T19:09:52.654Z,18.03
2017-12-05T19:11:55.317Z,16.83
2017-12-05T19:13:57.995Z,15.33
2017-12-05T19:16:00.700Z,16.83
2017-12-05T19:18:03.388Z,18.13
2017-12-05T19:20:20.359Z,15.87
2017-12-05T19:22:23.035Z,15.30
2017-12-05T19:24:25.738Z,14.73
2017-12-05T19:26:28.443Z,16.10
2017-12-05T19:28:31.992Z,15.30
2017-12-05T19:30:34.711Z,16.50
2017-12-05T19:32:39.221Z,15.40
2017-12-05T19:34:50.530Z,19.60
2017-12-05T19:36:53.197Z,15.93
2017-12-05T19:38:55.887Z,14.07
2017-12-05T19:40:58.564Z,15.60
2017-12-05T19:43:01.245Z,15.03
2017-12-05T19:45:04.047Z,18.93
2017-12-05T19:47:19.671Z,14.87
2017-12-05T19:49:22.392Z,14.63
2017-12-05T19:51:25.127Z,13.87
2017-12-05T19:53:30.635Z,14.97
2017-12-05T19:55:33.302Z,13.93
2017-12-05T19:57:38.166Z,13.67
2017-12-05T19:59:41.685Z,12.93
2017-12-05T20:01:44.386Z,13.73
2017-12-05T20:03:50.757Z,14.67
2017-12-05T20:05:53.439Z,15.43
2017-12-05T20:08:02.714Z,14.13
2017-12-05T20:10:05.420Z,14.60
2017-12-05T20:12:08.122Z,14.33
2017-12-05T20:14:12.065Z,14.77
2017-12-05T20:16:14.790Z,18.10
2017-12-05T20:18:17.539Z,15.67
2017-12-05T20:20:23.552Z,13.60
2017-12-05T20:22:26.270Z,13.37
2017-12-05T20:24:28.927Z,14.30
2017-12-05T20:26:31.685Z,11.87
2017-12-05T20:28:35.185Z,13.20
2017-12-05T20:30:38.643Z,13.53
2017-12-05T20:32:41.342Z,14.50
2017-12-05T20:34:44.042Z,14.10
2017-12-05T20:36:46.707Z,14.90
2017-12-05T20:38:50.189Z,15.07
2017-12-05T20:40:52.905Z,15.53
2017-12-05T20:42:55.594Z,15.07
2017-12-05T20:44:58.356Z,15.97
2017-12-05T20:47:08.991Z,15.40
2017-12-05T20:49:12.548Z,15.87
2017-12-05T20:51:15.259Z,14.00
2017-12-05T20:53:18.760Z,14.10
2017-12-05T20:55:24.244Z,13.73
2017-12-05T20:57:26.899Z,13.97
2017-12-05T20:59:36.590Z,14.57
2017-12-05T21:01:39.269Z,13.97
2017-12-05T21:03:49.956Z,13.73
2017-12-05T21:05:52.605Z,13.70
2017-12-05T21:07:55.274Z,13.53
2017-12-05T21:09:57.985Z,13.63
2017-12-05T21:12:00.656Z,13.67
2017-12-05T21:14:04.098Z,13.47
2017-12-05T21:16:06.724Z,14.60
2017-12-05T21:18:18.601Z,14.00
2017-12-05T21:20:22.135Z,13.17
2017-12-05T21:22:24.793Z,14.47
2017-12-05T21:24:27.494Z,14.23
2017-12-05T21:26:30.153Z,14.27
2017-12-05T21:28:32.792Z,14.97
2017-12-05T21:30:35.423Z,15.87
2017-12-05T21:32:38.183Z,15.50
2017-12-05T21:34:40.860Z,15.33
2017-12-05T21:36:43.518Z,14.40
2017-12-05T21:38:46.207Z,14.30
2017-12-05T21:40:48.868Z,14.83
2017-12-05T21:42:51.530Z,16.10
2017-12-05T21:45:05.268Z,14.73
2017-12-05T21:47:08.669Z,14.93
2017-12-05T21:49:11.363Z,15.43
2017-12-05T21:51:14.052Z,14.50
2017-12-05T21:53:16.684Z,14.70
2017-12-05T21:55:20.079Z,14.97
2017-12-05T21:57:23.529Z,15.00
2017-12-05T21:59:26.165Z,16.33
2017-12-05T22:01:28.830Z,15.17
2017-12-05T22:03:37.994Z,15.07
2017-12-05T22:05:44.000Z,14.87
2017-12-05T22:07:47.445Z,15.93
2017-12-05T22:09:50.092Z,15.50
2017-12-05T22:11:52.766Z,16.43
2017-12-05T22:13:55.422Z,16.43
2017-12-05T22:15:58.079Z,14.80
2017-12-05T22:18:01.492Z,16.27
2017-12-05T22:20:04.178Z,15.40
2017-12-05T22:22:06.844Z,16.17
2017-12-05T22:24:09.511Z,15.90
2017-12-05T22:26:12.948Z,16.00
2017-12-05T22:28:15.609Z,15.90
2017-12-05T22:30:19.024Z,15.43
2017-12-05T22:32:21.723Z,15.30
2017-12-05T22:34:24.397Z,14.37
2017-12-05T22:36:27.035Z,14.87
2017-12-05T22:38:29.711Z,14.80
2017-12-05T22:40:32.352Z,15.00
2017-12-05T22:42:35.042Z,14.27
2017-12-05T22:44:41.205Z,13.50
2017-12-05T22:46:43.851Z,13.60
2017-12-05T22:48:47.279Z,15.07
2017-12-05T22:50:49.912Z,14.93
2017-12-05T22:52:59.753Z,14.90
2017-12-05T22:55:03.198Z,14.03
2017-12-05T22:57:05.839Z,14.70
2017-12-05T22:59:08.500Z,15.53
2017-12-05T23:01:11.968Z,15.40
2017-12-05T23:03:14.631Z,14.73
2017-12-05T23:05:17.290Z,14.87
2017-12-05T23:07:19.989Z,14.50
2017-12-05T23:09:22.637Z,14.30
2017-12-05T23:11:25.296Z,14.87
2017-12-05T23:13:27.982Z,14.70
2017-12-05T23:15:30.637Z,14.83
2017-12-05T23:17:33.285Z,14.23
2017-12-05T23:19:36.735Z,14.10
2017-12-05T23:21:39.394Z,14.00
2017-12-05T23:23:42.051Z,12.70
2017-12-05T23:25:44.721Z,13.13
2017-12-05T23:27:47.359Z,14.20
2017-12-05T23:29:50.035Z,13.00
2017-12-05T23:31:52.719Z,14.30
2017-12-05T23:33:55.380Z,13.77
2017-12-05T23:35:58.047Z,14.20
2017-12-05T23:38:00.707Z,12.13
2017-12-05T23:40:03.361Z,14.07
2017-12-05T23:42:06.002Z,12.90
2017-12-05T23:44:09.449Z,12.83
2017-12-05T23:46:12.093Z,13.20
2017-12-05T23:48:14.754Z,12.50
2017-12-05T23:50:18.213Z,13.77
2017-12-05T23:52:21.667Z,12.77
2017-12-05T23:54:25.088Z,13.43
2017-12-05T23:56:27.773Z,13.20
2017-12-05T23:58:30.430Z,12.80
